Burwash, Yukon

Past 24 Hour Conditions

This table is a summary of hourly weather conditions for the past 24 hours. This summary includes the following parameters: temperature, humidity, dew point, wind speed and direction, air pressure, visibility and/or wind chill and humidex.
Date / Time
(PDT)
Conditions Temp (°F) Humidity (%) Dew Point (°F) Wind (mph) Pressure (inches) Visibility (miles)
23 April 2014
22:00 N/A 37 82 32 N/A 29.7 N/A
21:00 N/A 37 76 30 N/A 29.7 N/A
20:00 N/A 39 67 29 N/A 29.7 N/A
19:00 N/A 40 69 30 N/A 29.7 N/A
18:00 N/A 41 67 31 N/A 29.7 N/A
17:00 N/A 44   62 32 N/A 29.7 N/A
16:00 N/A 44   64 32 N/A 29.7 N/A
15:00 N/A 44   54 28 N/A 29.7 N/A
14:00 N/A 44   55 29 N/A 29.7 N/A
13:00 N/A 41 61 29 N/A 29.8 N/A
12:00 N/A 41 61 28 N/A 29.8 N/A
11:00 N/A 37 73 29 N/A 29.8 N/A
10:00 N/A 32 87 28 N/A 29.8 N/A
9:00 N/A 29 92 27 N/A 29.8 N/A
8:00 N/A 26 98 26 N/A 29.8 N/A
7:00 N/A 27 96 26 N/A 29.8 N/A
6:00 N/A 25 97 25 N/A 29.8 N/A
5:00 N/A 25 97 24 N/A 29.8 N/A
4:00 N/A 24   98 23 N/A 29.8 N/A
3:00 N/A 24   100 24 N/A 29.8 N/A
2:00 N/A 26 100 26 N/A 29.8 N/A
1:00 N/A 26 98 25 N/A 29.8 N/A
00:00 N/A 26 99 26 N/A 29.8 N/A
22 April 2014
23:00 N/A 28 97 27 N/A 29.8 N/A
22:00 N/A 31 92 29 N/A 29.8 N/A
N/A
Not available
 ↑ 
Highest temperature
 ↓ 
Lowest temperature

If you require additional historical weather information, please visit Climate Data Online.